Gp 1 — YP2990 — position and weather

sailwx.info

Track history (hours):
 
Tides and Currents Weather Stations Pressure Air Temp Water Temp Dewpoint Dewpoint Depression Visibility Wind Speed Wind Dir Waves Ship Positions

Gp 1

Last reported at 2017-Nov-19 05:29 UTC. Time now 2017-Nov-23 05:36 UTC.
Position N 44°15' E 028°19'.

Length 12 m; draft 1.5 m.

Type: Tanker. MMSI: 264162990.

Date/timePositionNaut miles runAvg speedWind from/ knotsBaromVisibWave heightAir tempDewpointWater temp
2017-Nov-19 05:29N 44°15' E 028°19'4 0.2
2017-Nov-18 12:35N 44°13' E 028°23'7 4.3
2017-Nov-18 10:53N 44°16' E 028°32'0 0.5
2017-Nov-18 10:21N 44°16' E 028°33'1 3.2
2017-Nov-18 10:00N 44°16' E 028°34'2 4.7
2017-Nov-18 09:30N 44°17' E 028°37'2 3.9
2017-Nov-18 09:00N 44°19' E 028°38'0 0.3
2017-Nov-18 08:30N 44°19' E 028°38'0 0.0
2017-Nov-18 08:00N 44°19' E 028°38'0 0.0
2017-Nov-18 07:30N 44°19' E 028°38'0 0.0
2017-Nov-18 07:00N 44°19' E 028°38'0 0.0
2017-Nov-18 06:30N 44°19' E 028°38'1 1.1
2017-Nov-18 06:00N 44°20' E 028°38'1 2.4
2017-Nov-18 05:30N 44°20' E 028°40'0 0.0
2017-Nov-18 05:00N 44°20' E 028°40'0 0.0
2017-Nov-18 04:30N 44°20' E 028°40'0 0.0
2017-Nov-18 04:00N 44°20' E 028°40'0 0.0
2017-Nov-18 03:30N 44°20' E 028°40'0 0.0
2017-Nov-18 03:00N 44°20' E 028°40'0 0.0
2017-Nov-18 02:30N 44°20' E 028°40'0 0.0
2017-Nov-18 02:00N 44°20' E 028°40'0 0.0
2017-Nov-18 01:30N 44°20' E 028°40'0 0.0
2017-Nov-18 01:00N 44°20' E 028°40'0 0.0
2017-Nov-18 00:30N 44°20' E 028°40'0 0.0
2017-Nov-18 00:00N 44°20' E 028°40'0 0.0
2017-Nov-17 23:30N 44°20' E 028°40'0 0.0
2017-Nov-17 23:00N 44°20' E 028°40'0 0.0
2017-Nov-17 22:30N 44°20' E 028°40'0 0.0
2017-Nov-17 22:00N 44°20' E 028°40'0 0.0
2017-Nov-17 21:30N 44°20' E 028°40'0 0.0
2017-Nov-17 21:00N 44°20' E 028°40'0 0.0
2017-Nov-17 20:30N 44°20' E 028°40'0 0.0
2017-Nov-17 20:00N 44°20' E 028°40'0 0.0
2017-Nov-17 19:30N 44°20' E 028°40'0 0.0
2017-Nov-17 19:00N 44°20' E 028°40'0 0.0
2017-Nov-17 18:30N 44°20' E 028°40'0 0.0
2017-Nov-17 18:00N 44°20' E 028°40'0 0.0
2017-Nov-17 17:30N 44°20' E 028°40'0 0.0
2017-Nov-17 17:00N 44°20' E 028°40'0 0.0
2017-Nov-17 16:30N 44°20' E 028°40'0 0.0
2017-Nov-17 16:00N 44°20' E 028°40'0 0.0
2017-Nov-17 15:30N 44°20' E 028°40'0 0.0
2017-Nov-17 15:00N 44°20' E 028°40'0 0.0
2017-Nov-17 14:30N 44°20' E 028°40'0 0.2
2017-Nov-17 14:00N 44°20' E 028°40'2 0.2
2017-Nov-17 05:33N 44°19' E 028°38'  
2017-Nov-10 14:52N 44°19' E 028°38'0 0.0
2017-Nov-10 14:30N 44°19' E 028°38'0 0.0
2017-Nov-10 14:00N 44°19' E 028°38'0 0.0
2017-Nov-10 13:31N 44°19' E 028°38'0 0.0
2017-Nov-10 13:00N 44°19' E 028°38'0 0.0
2017-Nov-10 12:31N 44°19' E 028°38'0 0.0
2017-Nov-10 12:00N 44°19' E 028°38'0 0.0
2017-Nov-10 11:30N 44°19' E 028°38'0 0.0
2017-Nov-10 11:00N 44°19' E 028°38'0 0.0
2017-Nov-10 10:31N 44°19' E 028°38'0 0.0
2017-Nov-10 10:01N 44°19' E 028°38'0 0.0
2017-Nov-10 09:30N 44°19' E 028°38'0 0.0
2017-Nov-09 14:23N 44°19' E 028°38'0 0.0
2017-Nov-09 14:01N 44°19' E 028°38'0 0.0
2017-Nov-09 13:30N 44°19' E 028°38'0 0.0
2017-Nov-09 13:01N 44°19' E 028°38'0 0.0
2017-Nov-09 12:31N 44°19' E 028°38'0 0.0
2017-Nov-09 12:00N 44°19' E 028°38'0 0.0
2017-Nov-09 11:30N 44°19' E 028°38'0 0.0
2017-Nov-09 11:01N 44°19' E 028°38'0 0.0
2017-Nov-09 10:31N 44°19' E 028°38'0 0.0
2017-Nov-09 10:00N 44°19' E 028°38'0 0.0
2017-Nov-09 09:30N 44°19' E 028°38'0 0.0
2017-Nov-09 09:00N 44°19' E 028°38'0 0.0
2017-Nov-09 08:31N 44°19' E 028°38'0 0.0
2017-Nov-09 08:00N 44°19' E 028°38'0 0.2
2017-Nov-09 07:31N 44°19' E 028°38'0 0.5
2017-Nov-09 07:01N 44°19' E 028°37'2 3.4
2017-Nov-09 06:31N 44°18' E 028°37'3 5.4
2017-Nov-09 06:01N 44°16' E 028°34'1 1.6
2017-Nov-09 05:30N 44°16' E 028°33'  
Track history (hours):
 
Tides and Currents Weather Stations Pressure Air Temp Water Temp Dewpoint Dewpoint Depression Visibility Wind Speed Wind Dir Waves Ship Positions

Gp 1

Last reported at 2017-Nov-19 05:29 UTC. Time now 2017-Nov-23 05:36 UTC.
Position N 44°15' E 028°19'.

Length 12 m; draft 1.5 m.

Type: Tanker. MMSI: 264162990.

Date/timePositionNaut miles runAvg speedWind from/ knotsBaromVisibWave heightAir tempDewpointWater temp
2017-Nov-19 05:29N 44°15' E 028°19'4 0.2
2017-Nov-18 12:35N 44°13' E 028°23'7 4.3
2017-Nov-18 10:53N 44°16' E 028°32'0 0.5
2017-Nov-18 10:21N 44°16' E 028°33'1 3.2
2017-Nov-18 10:00N 44°16' E 028°34'2 4.7
2017-Nov-18 09:30N 44°17' E 028°37'2 3.9
2017-Nov-18 09:00N 44°19' E 028°38'0 0.3
2017-Nov-18 08:30N 44°19' E 028°38'0 0.0
2017-Nov-18 08:00N 44°19' E 028°38'0 0.0
2017-Nov-18 07:30N 44°19' E 028°38'0 0.0
2017-Nov-18 07:00N 44°19' E 028°38'0 0.0
2017-Nov-18 06:30N 44°19' E 028°38'1 1.1
2017-Nov-18 06:00N 44°20' E 028°38'1 2.4
2017-Nov-18 05:30N 44°20' E 028°40'0 0.0
2017-Nov-18 05:00N 44°20' E 028°40'0 0.0
2017-Nov-18 04:30N 44°20' E 028°40'0 0.0
2017-Nov-18 04:00N 44°20' E 028°40'0 0.0
2017-Nov-18 03:30N 44°20' E 028°40'0 0.0
2017-Nov-18 03:00N 44°20' E 028°40'0 0.0
2017-Nov-18 02:30N 44°20' E 028°40'0 0.0
2017-Nov-18 02:00N 44°20' E 028°40'0 0.0
2017-Nov-18 01:30N 44°20' E 028°40'0 0.0
2017-Nov-18 01:00N 44°20' E 028°40'0 0.0
2017-Nov-18 00:30N 44°20' E 028°40'0 0.0
2017-Nov-18 00:00N 44°20' E 028°40'0 0.0
2017-Nov-17 23:30N 44°20' E 028°40'0 0.0
2017-Nov-17 23:00N 44°20' E 028°40'0 0.0
2017-Nov-17 22:30N 44°20' E 028°40'0 0.0
2017-Nov-17 22:00N 44°20' E 028°40'0 0.0
2017-Nov-17 21:30N 44°20' E 028°40'0 0.0
2017-Nov-17 21:00N 44°20' E 028°40'0 0.0
2017-Nov-17 20:30N 44°20' E 028°40'0 0.0
2017-Nov-17 20:00N 44°20' E 028°40'0 0.0
2017-Nov-17 19:30N 44°20' E 028°40'0 0.0
2017-Nov-17 19:00N 44°20' E 028°40'0 0.0
2017-Nov-17 18:30N 44°20' E 028°40'0 0.0
2017-Nov-17 18:00N 44°20' E 028°40'0 0.0
2017-Nov-17 17:30N 44°20' E 028°40'0 0.0
2017-Nov-17 17:00N 44°20' E 028°40'0 0.0
2017-Nov-17 16:30N 44°20' E 028°40'0 0.0
2017-Nov-17 16:00N 44°20' E 028°40'0 0.0
2017-Nov-17 15:30N 44°20' E 028°40'0 0.0
2017-Nov-17 15:00N 44°20' E 028°40'0 0.0
2017-Nov-17 14:30N 44°20' E 028°40'0 0.2
2017-Nov-17 14:00N 44°20' E 028°40'2 0.2
2017-Nov-17 05:33N 44°19' E 028°38'  
2017-Nov-10 14:52N 44°19' E 028°38'0 0.0
2017-Nov-10 14:30N 44°19' E 028°38'0 0.0
2017-Nov-10 14:00N 44°19' E 028°38'0 0.0
2017-Nov-10 13:31N 44°19' E 028°38'0 0.0
2017-Nov-10 13:00N 44°19' E 028°38'0 0.0
2017-Nov-10 12:31N 44°19' E 028°38'0 0.0
2017-Nov-10 12:00N 44°19' E 028°38'0 0.0
2017-Nov-10 11:30N 44°19' E 028°38'0 0.0
2017-Nov-10 11:00N 44°19' E 028°38'0 0.0
2017-Nov-10 10:31N 44°19' E 028°38'0 0.0
2017-Nov-10 10:01N 44°19' E 028°38'0 0.0
2017-Nov-10 09:30N 44°19' E 028°38'0 0.0
2017-Nov-09 14:23N 44°19' E 028°38'0 0.0
2017-Nov-09 14:01N 44°19' E 028°38'0 0.0
2017-Nov-09 13:30N 44°19' E 028°38'0 0.0
2017-Nov-09 13:01N 44°19' E 028°38'0 0.0
2017-Nov-09 12:31N 44°19' E 028°38'0 0.0
2017-Nov-09 12:00N 44°19' E 028°38'0 0.0
2017-Nov-09 11:30N 44°19' E 028°38'0 0.0
2017-Nov-09 11:01N 44°19' E 028°38'0 0.0
2017-Nov-09 10:31N 44°19' E 028°38'0 0.0
2017-Nov-09 10:00N 44°19' E 028°38'0 0.0
2017-Nov-09 09:30N 44°19' E 028°38'0 0.0
2017-Nov-09 09:00N 44°19' E 028°38'0 0.0
2017-Nov-09 08:31N 44°19' E 028°38'0 0.0
2017-Nov-09 08:00N 44°19' E 028°38'0 0.2
2017-Nov-09 07:31N 44°19' E 028°38'0 0.5
2017-Nov-09 07:01N 44°19' E 028°37'2 3.4
2017-Nov-09 06:31N 44°18' E 028°37'3 5.4
2017-Nov-09 06:01N 44°16' E 028°34'1 1.6
2017-Nov-09 05:30N 44°16' E 028°33'  

Dump ship's entire track history